Time;durP1;ratioP1;P1;durP2;ratioP2;P2;SDS_P1;SDS_P2;PMS_P1;PMS_P2;Temp;Humidity;BMP_temperature;BMP_pressure;BME280_temperature;BME280_humidity;BME280_pressure;Samples;Min_cycle;Max_cycle;Signal;HPM_P1;HPM_P2
2024/01/04 00:00:04;;;;;;;3.10;0.90;;;;;;;;;;5002350;28;20038;-59
2024/01/04 00:02:32;;;;;;;1.13;0.40;;;;;;;;;;4998365;28;20050;-58
2024/01/04 00:04:58;;;;;;;2.88;0.60;;;;;;;;;;4999654;28;20046;-55
2024/01/04 00:07:24;;;;;;;2.83;0.80;;;;;;;;;;4999850;28;20417;-56
2024/01/04 00:09:53;;;;;;;5.15;0.70;;;;;;;;;;4998796;28;20506;-54
2024/01/04 00:12:19;;;;;;;1.83;0.60;;;;;;;;;;4998359;28;20050;-56
2024/01/04 00:14:45;;;;;;;7.55;1.27;;;;;;;;;;4995426;28;20042;-57
2024/01/04 00:17:12;;;;;;;3.05;0.45;;;;;;;;;;5002615;28;20026;-56
2024/01/04 00:19:38;;;;;;;1.08;0.60;;;;;;;;;;5005275;28;20038;-56
2024/01/04 00:22:04;;;;;;;2.35;0.50;;;;;;;;;;5007520;28;20525;-58
2024/01/04 00:24:30;;;;;;;1.33;0.43;;;;;;;;;;4998638;28;20054;-56
2024/01/04 00:26:56;;;;;;;3.60;0.70;;;;;;;;;;4998330;28;20066;-56
2024/01/04 00:29:22;;;;;;;4.30;0.60;;;;;;;;;;4998788;28;20042;-56
2024/01/04 00:31:49;;;;;;;3.05;0.45;;;;;;;;;;4999561;28;20054;-56
2024/01/04 00:34:15;;;;;;;2.85;0.93;;;;;;;;;;5003186;28;20029;-57
2024/01/04 00:36:41;;;;;;;3.85;1.35;;;;;;;;;;5002732;28;20037;-57
2024/01/04 00:39:08;;;;;;;3.00;0.60;;;;;;;;;;5001938;28;20041;-56
2024/01/04 00:41:34;;;;;;;2.40;0.60;;;;;;;;;;5009280;28;20042;-57
2024/01/04 00:44:00;;;;;;;2.30;0.60;;;;;;;;;;5004857;28;20034;-53
2024/01/04 00:46:26;;;;;;;2.08;0.70;;;;;;;;;;5004212;28;20042;-57
2024/01/04 00:48:53;;;;;;;4.72;0.80;;;;;;;;;;4988969;28;20053;-56
2024/01/04 00:51:19;;;;;;;3.17;0.47;;;;;;;;;;5002369;28;20049;-56
2024/01/04 00:53:45;;;;;;;5.95;0.60;;;;;;;;;;5006090;28;20493;-55
2024/01/04 00:56:11;;;;;;;1.10;0.40;;;;;;;;;;5008171;28;20036;-56
2024/01/04 00:58:37;;;;;;;4.13;0.80;;;;;;;;;;4994917;28;20410;-56
2024/01/04 01:01:04;;;;;;;1.33;0.40;;;;;;;;;;5000022;28;20038;-56
2024/01/04 01:03:30;;;;;;;0.95;0.50;;;;;;;;;;5006300;28;20065;-56
2024/01/04 01:05:57;;;;;;;1.67;0.45;;;;;;;;;;5020016;28;20046;-55
2024/01/04 01:08:25;;;;;;;0.70;0.43;;;;;;;;;;5000778;28;20030;-55
2024/01/04 01:10:51;;;;;;;2.90;0.63;;;;;;;;;;5001272;28;20046;-55
2024/01/04 01:13:20;;;;;;;3.85;0.60;;;;;;;;;;5009074;28;20037;-53
2024/01/04 01:15:46;;;;;;;1.38;0.50;;;;;;;;;;5002038;28;20053;-53
2024/01/04 01:18:13;;;;;;;1.25;0.50;;;;;;;;;;5002163;28;20030;-56
2024/01/04 01:20:39;;;;;;;3.53;0.60;;;;;;;;;;5002584;28;20034;-56
2024/01/04 01:23:05;;;;;;;1.58;0.43;;;;;;;;;;5004917;28;20049;-54
2024/01/04 01:25:31;;;;;;;2.58;0.52;;;;;;;;;;5003683;28;20644;-56
2024/01/04 01:27:57;;;;;;;2.58;0.52;;;;;;;;;;4999939;28;20042;-55
2024/01/04 01:30:23;;;;;;;2.85;0.40;;;;;;;;;;5006447;28;20053;-56
2024/01/04 01:32:50;;;;;;;1.52;0.60;;;;;;;;;;5005375;28;20514;-55
2024/01/04 01:35:16;;;;;;;4.35;0.70;;;;;;;;;;5000248;28;20049;-56
2024/01/04 01:37:42;;;;;;;1.05;0.38;;;;;;;;;;5000258;28;20402;-56
2024/01/04 01:40:08;;;;;;;2.42;0.50;;;;;;;;;;5003095;28;20049;-52
2024/01/04 01:42:34;;;;;;;5.22;0.63;;;;;;;;;;5004064;28;20038;-55
2024/01/04 01:45:00;;;;;;;4.72;0.50;;;;;;;;;;5003106;28;20046;-55
2024/01/04 01:47:28;;;;;;;4.28;0.40;;;;;;;;;;5006672;28;20034;-56
2024/01/04 01:49:54;;;;;;;1.75;0.47;;;;;;;;;;5004403;28;20034;-54
2024/01/04 01:52:22;;;;;;;2.67;0.60;;;;;;;;;;5000414;28;20042;-55
2024/01/04 01:54:49;;;;;;;1.95;0.50;;;;;;;;;;5002658;28;20046;-56
2024/01/04 01:57:16;;;;;;;3.30;0.60;;;;;;;;;;4997050;28;20046;-56
2024/01/04 01:59:43;;;;;;;2.28;0.57;;;;;;;;;;4997106;28;20061;-56
2024/01/04 02:02:10;;;;;;;5.65;0.60;;;;;;;;;;5010025;28;20042;-56
2024/01/04 02:04:37;;;;;;;1.10;0.52;;;;;;;;;;5006183;28;20034;-56
2024/01/04 02:07:03;;;;;;;2.00;0.60;;;;;;;;;;5001196;28;20058;-58
2024/01/04 02:09:29;;;;;;;2.70;0.70;;;;;;;;;;4986227;28;20058;-55
2024/01/04 02:12:05;;;;;;;2.28;0.65;;;;;;;;;;5004107;28;20037;-54
2024/01/04 02:14:33;;;;;;;3.00;0.70;;;;;;;;;;5001566;28;20034;-56
2024/01/04 02:16:59;;;;;;;2.05;0.80;;;;;;;;;;5001549;28;20046;-59
2024/01/04 02:19:27;;;;;;;1.88;0.43;;;;;;;;;;5007775;28;20048;-56
2024/01/04 02:21:53;;;;;;;1.80;0.45;;;;;;;;;;5008864;28;20046;-60
2024/01/04 02:24:19;;;;;;;4.05;0.80;;;;;;;;;;4997614;28;20049;-60
2024/01/04 02:26:45;;;;;;;3.03;0.63;;;;;;;;;;5000877;28;20053;-59
2024/01/04 02:29:11;;;;;;;4.80;0.50;;;;;;;;;;4999500;28;20065;-59
2024/01/04 02:31:38;;;;;;;0.82;0.40;;;;;;;;;;4999095;28;20046;-59
2024/01/04 02:34:04;;;;;;;2.15;0.50;;;;;;;;;;5002354;28;20036;-58
2024/01/04 02:36:31;;;;;;;2.90;0.70;;;;;;;;;;4999166;28;20038;-59
2024/01/04 02:38:58;;;;;;;3.05;0.70;;;;;;;;;;5000819;28;20057;-58
2024/01/04 02:41:24;;;;;;;2.40;0.95;;;;;;;;;;5002877;28;20654;-59
2024/01/04 02:43:51;;;;;;;1.13;0.40;;;;;;;;;;4997518;28;20066;-58
2024/01/04 02:46:17;;;;;;;2.72;0.82;;;;;;;;;;5004941;28;20397;-59
2024/01/04 02:48:43;;;;;;;2.63;0.65;;;;;;;;;;5006068;28;20505;-60
2024/01/04 02:51:09;;;;;;;5.40;0.73;;;;;;;;;;4985972;28;20034;-58
2024/01/04 02:53:35;;;;;;;1.25;0.60;;;;;;;;;;4994939;28;20035;-59
2024/01/04 02:56:03;;;;;;;2.80;0.60;;;;;;;;;;5001106;28;20045;-59
2024/01/04 02:58:29;;;;;;;0.63;0.45;;;;;;;;;;4995310;28;20422;-60
2024/01/04 03:00:55;;;;;;;1.80;0.60;;;;;;;;;;4996012;28;20041;-58
2024/01/04 03:03:21;;;;;;;3.08;0.60;;;;;;;;;;5000891;28;20421;-60
2024/01/04 03:05:47;;;;;;;3.22;0.57;;;;;;;;;;5002890;28;20065;-59
2024/01/04 03:08:14;;;;;;;3.10;0.60;;;;;;;;;;5004188;28;20038;-59
2024/01/04 03:10:40;;;;;;;6.97;1.02;;;;;;;;;;4997337;28;20035;-59
2024/01/04 03:13:06;;;;;;;3.38;0.77;;;;;;;;;;4998435;28;20497;-58
2024/01/04 03:15:33;;;;;;;1.48;0.82;;;;;;;;;;4996153;28;20406;-59
2024/01/04 03:17:59;;;;;;;5.93;1.00;;;;;;;;;;5002791;28;20429;-57
2024/01/04 03:20:25;;;;;;;4.30;0.98;;;;;;;;;;5002963;28;20042;-58
2024/01/04 03:22:51;;;;;;;4.80;0.60;;;;;;;;;;4999057;28;20050;-59
2024/01/04 03:25:18;;;;;;;4.78;0.60;;;;;;;;;;5003209;28;20056;-57
2024/01/04 03:27:45;;;;;;;5.53;0.70;;;;;;;;;;4999047;28;20050;-59
2024/01/04 03:30:11;;;;;;;1.92;0.55;;;;;;;;;;4995709;28;20550;-58
2024/01/04 03:32:37;;;;;;;5.97;1.10;;;;;;;;;;4997690;28;20046;-59
2024/01/04 03:35:07;;;;;;;4.22;0.70;;;;;;;;;;5003565;28;20049;-58
2024/01/04 03:37:33;;;;;;;3.97;0.88;;;;;;;;;;5003208;28;20556;-56
2024/01/04 03:39:59;;;;;;;2.50;0.77;;;;;;;;;;5002757;28;20038;-58
2024/01/04 03:42:25;;;;;;;1.50;0.60;;;;;;;;;;4997730;28;20410;-57
2024/01/04 03:44:51;;;;;;;2.45;0.70;;;;;;;;;;4998240;28;20050;-59
2024/01/04 03:47:17;;;;;;;4.53;0.77;;;;;;;;;;4997139;28;20034;-56
2024/01/04 03:49:43;;;;;;;3.47;0.60;;;;;;;;;;5002857;28;20038;-56
2024/01/04 03:52:09;;;;;;;1.70;0.43;;;;;;;;;;4997463;28;20382;-57
2024/01/04 03:54:36;;;;;;;1.65;0.50;;;;;;;;;;4999416;28;20379;-57
2024/01/04 03:57:02;;;;;;;2.08;0.52;;;;;;;;;;5005001;28;20050;-57
2024/01/04 03:59:28;;;;;;;2.03;0.60;;;;;;;;;;5000956;28;20498;-56
2024/01/04 04:01:54;;;;;;;0.90;0.40;;;;;;;;;;4997471;28;20053;-56
2024/01/04 04:04:20;;;;;;;3.00;0.50;;;;;;;;;;5003380;28;20054;-55
2024/01/04 04:06:47;;;;;;;2.13;0.60;;;;;;;;;;4994701;28;20453;-55
2024/01/04 04:09:13;;;;;;;2.10;0.35;;;;;;;;;;5003612;28;20030;-57
2024/01/04 04:11:39;;;;;;;1.50;0.40;;;;;;;;;;4997438;28;20034;-56
2024/01/04 04:14:07;;;;;;;0.95;0.40;;;;;;;;;;4999573;28;20045;-56
2024/01/04 04:16:39;;;;;;;3.00;0.40;;;;;;;;;;5000586;28;20038;-58
2024/01/04 04:19:05;;;;;;;2.58;0.40;;;;;;;;;;5004015;28;20057;-55
2024/01/04 04:21:31;;;;;;;4.32;1.10;;;;;;;;;;5010709;28;20041;-58
2024/01/04 04:23:57;;;;;;;3.13;0.73;;;;;;;;;;5003649;28;20541;-57
2024/01/04 04:26:24;;;;;;;2.92;0.73;;;;;;;;;;5003674;28;20046;-56
2024/01/04 04:28:50;;;;;;;3.05;0.68;;;;;;;;;;4999800;28;20522;-56
2024/01/04 04:31:17;;;;;;;6.40;0.50;;;;;;;;;;5010102;28;20041;-55
2024/01/04 04:33:44;;;;;;;0.57;0.40;;;;;;;;;;4997843;28;20046;-56
2024/01/04 04:36:11;;;;;;;1.00;0.40;;;;;;;;;;5000959;28;20037;-55
2024/01/04 04:38:38;;;;;;;2.15;0.57;;;;;;;;;;5008150;28;20512;-58
2024/01/04 04:41:05;;;;;;;4.40;0.57;;;;;;;;;;4999776;28;20037;-55
2024/01/04 04:43:32;;;;;;;1.50;0.52;;;;;;;;;;5004549;28;20053;-56
2024/01/04 04:45:59;;;;;;;1.67;0.40;;;;;;;;;;5003402;28;20054;-56
2024/01/04 04:48:25;;;;;;;1.20;0.40;;;;;;;;;;4998318;28;20052;-55
2024/01/04 04:50:52;;;;;;;6.10;0.70;;;;;;;;;;5001672;28;20057;-56
2024/01/04 04:53:19;;;;;;;0.70;0.52;;;;;;;;;;5007360;28;20041;-57
2024/01/04 04:55:45;;;;;;;5.80;0.77;;;;;;;;;;5004541;28;20053;-58
2024/01/04 04:58:11;;;;;;;0.52;0.43;;;;;;;;;;5005683;28;20025;-58
2024/01/04 05:00:38;;;;;;;1.90;0.40;;;;;;;;;;5001250;28;20045;-58
2024/01/04 05:03:04;;;;;;;0.93;0.40;;;;;;;;;;5002761;28;20049;-59
2024/01/04 05:05:30;;;;;;;1.52;0.50;;;;;;;;;;5000598;28;20045;-58
2024/01/04 05:07:56;;;;;;;3.83;0.60;;;;;;;;;;5004180;28;20405;-57
2024/01/04 05:10:22;;;;;;;2.88;0.73;;;;;;;;;;4999532;28;20053;-57
2024/01/04 05:12:49;;;;;;;2.53;0.43;;;;;;;;;;4999018;28;20050;-57
2024/01/04 05:15:15;;;;;;;0.55;0.40;;;;;;;;;;5005982;28;20073;-59
2024/01/04 05:17:41;;;;;;;5.72;0.85;;;;;;;;;;5002355;28;20039;-57
2024/01/04 05:20:07;;;;;;;2.53;0.70;;;;;;;;;;4998734;28;20084;-58
2024/01/04 05:22:35;;;;;;;3.05;0.65;;;;;;;;;;5005273;28;20045;-57
2024/01/04 05:25:01;;;;;;;2.55;0.50;;;;;;;;;;5007876;28;20061;-56
2024/01/04 05:27:27;;;;;;;1.48;0.70;;;;;;;;;;5003944;28;20034;-57
2024/01/04 05:29:54;;;;;;;2.65;0.68;;;;;;;;;;5005655;28;20053;-58
2024/01/04 05:32:20;;;;;;;2.85;0.50;;;;;;;;;;5005255;28;20514;-58
2024/01/04 05:34:46;;;;;;;2.03;1.23;;;;;;;;;;5001813;28;20038;-56
2024/01/04 05:37:12;;;;;;;2.10;0.57;;;;;;;;;;5005842;28;20053;-58
2024/01/04 05:39:39;;;;;;;1.58;0.65;;;;;;;;;;5005194;28;20034;-57
2024/01/04 05:42:05;;;;;;;3.65;0.47;;;;;;;;;;5003092;28;20057;-57
2024/01/04 05:44:31;;;;;;;3.50;0.70;;;;;;;;;;4994163;28;20057;-59
2024/01/04 05:46:57;;;;;;;0.75;0.60;;;;;;;;;;5005976;28;20497;-57
2024/01/04 05:49:23;;;;;;;3.30;0.50;;;;;;;;;;5002720;28;20053;-57
2024/01/04 05:51:49;;;;;;;5.80;0.60;;;;;;;;;;4998437;28;20064;-57
2024/01/04 05:54:16;;;;;;;2.97;1.02;;;;;;;;;;5009749;28;20042;-57
2024/01/04 05:56:44;;;;;;;6.10;0.70;;;;;;;;;;5003426;28;20061;-57
2024/01/04 05:59:10;;;;;;;0.90;0.50;;;;;;;;;;5005062;28;20060;-57
2024/01/04 06:01:38;;;;;;;3.72;0.82;;;;;;;;;;5007968;28;20037;-58
2024/01/04 06:04:05;;;;;;;3.40;0.60;;;;;;;;;;5000681;28;20042;-58
2024/01/04 06:06:31;;;;;;;2.97;0.60;;;;;;;;;;5001836;28;20248;-56
2024/01/04 06:08:57;;;;;;;1.50;0.82;;;;;;;;;;5008019;28;20417;-59
2024/01/04 06:11:23;;;;;;;4.05;0.60;;;;;;;;;;4998961;28;20041;-58
2024/01/04 06:13:50;;;;;;;5.65;1.02;;;;;;;;;;5005852;28;20045;-59
2024/01/04 06:16:17;;;;;;;4.85;0.65;;;;;;;;;;5002653;28;20052;-58
2024/01/04 06:18:43;;;;;;;3.35;0.60;;;;;;;;;;5000856;28;20027;-57
2024/01/04 06:21:09;;;;;;;2.10;0.90;;;;;;;;;;5008413;28;20044;-57
2024/01/04 06:23:36;;;;;;;6.10;1.08;;;;;;;;;;5002971;28;20049;-57
2024/01/04 06:26:02;;;;;;;4.82;0.93;;;;;;;;;;5000532;28;20494;-58
2024/01/04 06:28:29;;;;;;;9.85;0.80;;;;;;;;;;5000310;28;20409;-58
2024/01/04 06:30:55;;;;;;;2.88;0.70;;;;;;;;;;5001142;28;20030;-58
2024/01/04 06:33:21;;;;;;;4.65;1.10;;;;;;;;;;5004699;28;20046;-58
2024/01/04 06:35:47;;;;;;;2.58;0.70;;;;;;;;;;5001042;28;20058;-57
2024/01/04 06:38:13;;;;;;;8.68;1.58;;;;;;;;;;5003548;28;20064;-57
2024/01/04 06:40:40;;;;;;;3.72;0.90;;;;;;;;;;5000046;28;20042;-57
2024/01/04 06:43:09;;;;;;;2.88;0.80;;;;;;;;;;5000255;28;20533;-59
2024/01/04 06:45:36;;;;;;;5.20;0.82;;;;;;;;;;5003073;28;20520;-57
2024/01/04 06:48:07;;;;;;;4.45;0.98;;;;;;;;;;4999735;28;20061;-58
2024/01/04 06:50:33;;;;;;;5.18;1.10;;;;;;;;;;5006691;28;20412;-58
2024/01/04 06:53:00;;;;;;;9.77;2.45;;;;;;;;;;5001707;28;20050;-56
2024/01/04 06:55:26;;;;;;;5.72;0.95;;;;;;;;;;5002490;28;20037;-57
2024/01/04 06:57:52;;;;;;;5.20;1.30;;;;;;;;;;5005341;28;20042;-58
2024/01/04 07:00:18;;;;;;;5.13;1.40;;;;;;;;;;4997623;28;20038;-57
2024/01/04 07:02:44;;;;;;;5.80;1.30;;;;;;;;;;4998467;28;20498;-57
2024/01/04 07:05:11;;;;;;;4.13;0.88;;;;;;;;;;5000288;28;20042;-58
2024/01/04 07:07:38;;;;;;;3.45;1.20;;;;;;;;;;5003125;28;20034;-58
2024/01/04 07:10:05;;;;;;;1.85;0.50;;;;;;;;;;5001734;28;20042;-58
2024/01/04 07:12:32;;;;;;;3.55;1.10;;;;;;;;;;4999945;28;20489;-58
2024/01/04 07:14:58;;;;;;;1.05;0.50;;;;;;;;;;5003991;28;20038;-58
2024/01/04 07:17:24;;;;;;;3.72;0.60;;;;;;;;;;4999076;28;20030;-58
2024/01/04 07:19:50;;;;;;;6.45;1.40;;;;;;;;;;5001799;28;20641;-57
2024/01/04 07:22:16;;;;;;;4.43;0.77;;;;;;;;;;5005347;28;20064;-56
2024/01/04 07:24:43;;;;;;;2.92;0.98;;;;;;;;;;4999031;28;20049;-58
2024/01/04 07:27:10;;;;;;;1.80;0.60;;;;;;;;;;5005187;28;20033;-57
2024/01/04 07:29:37;;;;;;;4.82;0.70;;;;;;;;;;5005983;28;20050;-57
2024/01/04 07:32:03;;;;;;;2.80;0.65;;;;;;;;;;5001207;28;20046;-58
2024/01/04 07:34:32;;;;;;;2.17;0.70;;;;;;;;;;5002316;28;20049;-58
2024/01/04 07:36:58;;;;;;;3.92;0.57;;;;;;;;;;5004468;28;20049;-57
2024/01/04 07:39:26;;;;;;;9.15;1.10;;;;;;;;;;5002743;28;20042;-58
2024/01/04 07:41:52;;;;;;;2.53;1.10;;;;;;;;;;5000973;28;20038;-57
2024/01/04 07:44:18;;;;;;;3.60;1.10;;;;;;;;;;5002313;28;20122;-58
2024/01/04 07:46:44;;;;;;;2.90;0.75;;;;;;;;;;5001137;28;20048;-55
2024/01/04 07:49:10;;;;;;;2.97;1.00;;;;;;;;;;5003486;28;20046;-57
2024/01/04 07:51:38;;;;;;;8.60;2.47;;;;;;;;;;4995897;28;20057;-58
2024/01/04 07:54:04;;;;;;;8.43;1.05;;;;;;;;;;4994257;28;20076;-58
2024/01/04 07:56:30;;;;;;;2.08;1.00;;;;;;;;;;5003638;28;20046;-59
2024/01/04 07:58:57;;;;;;;5.57;1.20;;;;;;;;;;4997673;28;20042;-60
2024/01/04 08:01:23;;;;;;;5.18;1.08;;;;;;;;;;5004952;28;20040;-58
2024/01/04 08:03:49;;;;;;;6.78;1.05;;;;;;;;;;5001569;28;20042;-58
2024/01/04 08:06:15;;;;;;;4.78;1.48;;;;;;;;;;4996662;28;20033;-58
2024/01/04 08:08:41;;;;;;;1.80;0.75;;;;;;;;;;5010904;28;20498;-58
2024/01/04 08:11:08;;;;;;;5.20;1.02;;;;;;;;;;4991675;28;20050;-58
2024/01/04 08:13:34;;;;;;;3.20;0.93;;;;;;;;;;5001816;28;20030;-58
2024/01/04 08:16:01;;;;;;;5.22;0.75;;;;;;;;;;5002205;28;20042;-58
2024/01/04 08:18:27;;;;;;;3.92;0.85;;;;;;;;;;4993645;28;20053;-59
2024/01/04 08:20:53;;;;;;;2.60;0.52;;;;;;;;;;4991819;28;20042;-56
2024/01/04 08:23:19;;;;;;;3.60;1.67;;;;;;;;;;5000048;28;20501;-62
2024/01/04 08:25:46;;;;;;;6.45;1.00;;;;;;;;;;5002807;28;20038;-58
2024/01/04 08:28:12;;;;;;;2.78;0.77;;;;;;;;;;4997091;28;20046;-59
2024/01/04 08:30:38;;;;;;;3.63;1.15;;;;;;;;;;4999535;28;20042;-58
2024/01/04 08:33:04;;;;;;;4.78;0.80;;;;;;;;;;4997429;28;20053;-58
2024/01/04 08:35:31;;;;;;;4.03;1.40;;;;;;;;;;4999496;28;20522;-58
2024/01/04 08:37:57;;;;;;;6.03;1.05;;;;;;;;;;5000675;28;20046;-58
2024/01/04 08:40:23;;;;;;;7.20;2.17;;;;;;;;;;4995432;28;20049;-59
2024/01/04 08:42:49;;;;;;;5.57;1.40;;;;;;;;;;5000504;28;20045;-58
2024/01/04 08:45:15;;;;;;;4.15;0.90;;;;;;;;;;5001518;28;20387;-57
2024/01/04 08:47:41;;;;;;;9.13;1.10;;;;;;;;;;5001212;28;20045;-57
2024/01/04 08:50:08;;;;;;;1.70;0.80;;;;;;;;;;4997132;28;20049;-58
2024/01/04 08:52:34;;;;;;;5.03;0.90;;;;;;;;;;5001551;28;20029;-57
2024/01/04 08:55:00;;;;;;;4.25;1.00;;;;;;;;;;4997741;28;20053;-57
2024/01/04 08:57:27;;;;;;;3.55;0.80;;;;;;;;;;5001291;28;20045;-57
2024/01/04 08:59:53;;;;;;;5.57;1.65;;;;;;;;;;5000896;28;20114;-57
2024/01/04 09:02:20;;;;;;;8.10;1.50;;;;;;;;;;5000483;28;20065;-58
2024/01/04 09:04:46;;;;;;;11.50;2.33;;;;;;;;;;5000134;28;20065;-57
2024/01/04 09:07:14;;;;;;;5.30;1.05;;;;;;;;;;5005278;28;20042;-57
2024/01/04 09:09:41;;;;;;;4.50;1.15;;;;;;;;;;5001623;28;20038;-57
2024/01/04 09:12:07;;;;;;;4.30;1.08;;;;;;;;;;5007915;28;20418;-58
2024/01/04 09:14:33;;;;;;;3.17;0.65;;;;;;;;;;5002998;28;20038;-57
2024/01/04 09:17:00;;;;;;;4.30;1.17;;;;;;;;;;5003796;28;20030;-58
2024/01/04 09:19:26;;;;;;;4.70;1.35;;;;;;;;;;5002785;28;20041;-59
2024/01/04 09:21:53;;;;;;;6.38;1.27;;;;;;;;;;5004427;28;20060;-58
2024/01/04 09:24:20;;;;;;;4.47;1.27;;;;;;;;;;5005823;28;20026;-58
2024/01/04 09:26:46;;;;;;;5.00;1.13;;;;;;;;;;5008187;28;20056;-58
2024/01/04 09:29:14;;;;;;;4.53;1.40;;;;;;;;;;5006405;28;20394;-57
2024/01/04 09:31:40;;;;;;;5.97;1.10;;;;;;;;;;4995710;28;20042;-58
2024/01/04 09:34:06;;;;;;;5.65;0.95;;;;;;;;;;5000873;28;20038;-58
2024/01/04 09:36:33;;;;;;;6.85;1.73;;;;;;;;;;5000659;28;20050;-58
2024/01/04 09:38:59;;;;;;;3.70;1.52;;;;;;;;;;5001735;28;20426;-59
2024/01/04 09:41:25;;;;;;;4.53;1.50;;;;;;;;;;5001897;28;20049;-58
2024/01/04 09:44:00;;;;;;;5.38;1.10;;;;;;;;;;5000783;28;20069;-58
2024/01/04 09:46:38;;;;;;;3.72;0.82;;;;;;;;;;5002427;28;20051;-59
2024/01/04 09:49:05;;;;;;;6.35;1.63;;;;;;;;;;5002656;28;20509;-57
2024/01/04 09:51:39;;;;;;;4.43;1.10;;;;;;;;;;4998400;28;20494;-58
2024/01/04 09:54:10;;;;;;;3.58;1.10;;;;;;;;;;4998252;28;20046;-58
2024/01/04 09:56:42;;;;;;;3.40;1.20;;;;;;;;;;4999609;28;20029;-58
2024/01/04 09:59:09;;;;;;;5.82;1.70;;;;;;;;;;5003647;28;22031;-57
2024/01/04 10:01:38;;;;;;;4.78;1.00;;;;;;;;;;4999080;28;20045;-58
2024/01/04 10:04:11;;;;;;;4.43;1.40;;;;;;;;;;5002491;28;20030;-57
2024/01/04 10:06:39;;;;;;;3.95;1.05;;;;;;;;;;4996372;28;20405;-57
2024/01/04 10:09:08;;;;;;;2.97;0.68;;;;;;;;;;5002496;28;20049;-58
2024/01/04 10:11:43;;;;;;;3.53;1.25;;;;;;;;;;5004756;28;20038;-57
2024/01/04 10:14:09;;;;;;;6.75;1.65;;;;;;;;;;4999793;28;20026;-58
2024/01/04 10:16:37;;;;;;;6.00;1.25;;;;;;;;;;5004746;28;20058;-58
2024/01/04 10:19:03;;;;;;;4.22;1.20;;;;;;;;;;5000385;28;20030;-59
2024/01/04 10:21:35;;;;;;;5.88;1.95;;;;;;;;;;5003822;28;20044;-59
2024/01/04 10:24:02;;;;;;;4.68;1.40;;;;;;;;;;5001898;28;20042;-58
2024/01/04 10:26:28;;;;;;;4.43;1.50;;;;;;;;;;5001430;28;20034;-59
2024/01/04 10:29:00;;;;;;;4.07;1.27;;;;;;;;;;4999948;28;20033;-58
2024/01/04 10:31:26;;;;;;;3.33;0.73;;;;;;;;;;5015550;28;20046;-59
2024/01/04 10:33:57;;;;;;;5.07;1.83;;;;;;;;;;4996770;28;20506;-58
2024/01/04 10:36:25;;;;;;;9.57;2.05;;;;;;;;;;5006455;28;20037;-59
2024/01/04 10:38:51;;;;;;;5.63;1.40;;;;;;;;;;5001869;28;20041;-59
2024/01/04 10:41:20;;;;;;;2.97;0.65;;;;;;;;;;5003839;28;20030;-58
2024/01/04 10:43:46;;;;;;;5.90;1.25;;;;;;;;;;5007606;28;20054;-58
2024/01/04 10:46:13;;;;;;;6.18;1.30;;;;;;;;;;4997480;28;20409;-59
2024/01/04 10:48:39;;;;;;;3.50;1.23;;;;;;;;;;5001640;28;20054;-60
2024/01/04 10:51:08;;;;;;;5.13;1.50;;;;;;;;;;5004631;28;20034;-58
2024/01/04 10:53:38;;;;;;;5.28;0.88;;;;;;;;;;5000422;28;20054;-58
2024/01/04 10:56:05;;;;;;;3.83;1.30;;;;;;;;;;5003026;28;20054;-58
2024/01/04 10:58:41;;;;;;;4.85;1.13;;;;;;;;;;4998052;28;20057;-59
2024/01/04 11:01:09;;;;;;;8.90;1.65;;;;;;;;;;5003213;28;20053;-58
2024/01/04 11:03:36;;;;;;;6.10;1.27;;;;;;;;;;5000859;28;20033;-59
2024/01/04 11:06:03;;;;;;;7.43;1.85;;;;;;;;;;5004016;28;20038;-59
2024/01/04 11:08:32;;;;;;;5.78;1.10;;;;;;;;;;5004211;28;20061;-59
2024/01/04 11:11:00;;;;;;;4.15;1.02;;;;;;;;;;4999578;28;20502;-59
2024/01/04 11:13:26;;;;;;;3.78;1.10;;;;;;;;;;4997061;28;20061;-60
2024/01/04 11:15:57;;;;;;;6.57;1.25;;;;;;;;;;4998108;28;20532;-59
2024/01/04 11:18:59;;;;;;;7.63;0.95;;;;;;;;;;5001209;28;20042;-58
2024/01/04 11:21:57;;;;;;;4.82;0.85;;;;;;;;;;5015812;28;20045;-59
2024/01/04 11:24:29;;;;;;;2.78;0.60;;;;;;;;;;4992142;28;20039;-59
2024/01/04 11:26:58;;;;;;;5.40;1.00;;;;;;;;;;4994706;28;20046;-59
2024/01/04 11:29:26;;;;;;;2.53;0.82;;;;;;;;;;5001377;28;20045;-59
2024/01/04 11:31:57;;;;;;;3.15;0.85;;;;;;;;;;4999900;28;20041;-59
2024/01/04 11:34:24;;;;;;;6.88;1.95;;;;;;;;;;5002526;28;20193;-59
2024/01/04 11:36:54;;;;;;;5.65;1.13;;;;;;;;;;4997738;28;20034;-59
2024/01/04 11:39:29;;;;;;;2.72;0.90;;;;;;;;;;5001975;28;20034;-59
2024/01/04 11:41:55;;;;;;;3.53;0.80;;;;;;;;;;5001191;28;20044;-59
2024/01/04 11:44:21;;;;;;;5.57;1.73;;;;;;;;;;4998072;28;20050;-58
2024/01/04 11:46:56;;;;;;;4.30;1.70;;;;;;;;;;5001480;28;20045;-59
2024/01/04 11:49:23;;;;;;;4.05;1.40;;;;;;;;;;5003271;28;20068;-59
2024/01/04 11:51:49;;;;;;;1.20;0.60;;;;;;;;;;4997533;28;20051;-59
2024/01/04 11:54:20;;;;;;;5.35;2.00;;;;;;;;;;4998668;28;20034;-59
2024/01/04 11:56:47;;;;;;;10.07;2.42;;;;;;;;;;4995467;28;20517;-59
2024/01/04 11:59:21;;;;;;;3.97;1.02;;;;;;;;;;4998070;28;20053;-58
2024/01/04 12:01:48;;;;;;;5.22;1.35;;;;;;;;;;5000814;28;20517;-59
2024/01/04 12:04:15;;;;;;;7.07;1.38;;;;;;;;;;4997892;28;20037;-59
2024/01/04 12:06:44;;;;;;;4.40;1.20;;;;;;;;;;5003588;28;20038;-59
2024/01/04 12:09:15;;;;;;;6.03;1.52;;;;;;;;;;5004809;28;20045;-59
2024/01/04 12:11:43;;;;;;;6.40;1.50;;;;;;;;;;5004059;28;20404;-59
2024/01/04 12:14:09;;;;;;;4.82;1.50;;;;;;;;;;5004592;28;20037;-59
2024/01/04 12:16:38;;;;;;;4.57;1.60;;;;;;;;;;5001012;28;20520;-59
2024/01/04 12:19:04;;;;;;;3.20;0.80;;;;;;;;;;4998915;28;20046;-59
2024/01/04 12:21:30;;;;;;;3.15;0.75;;;;;;;;;;5016790;28;20038;-59
2024/01/04 12:23:57;;;;;;;6.30;0.80;;;;;;;;;;5000939;28;20037;-61
2024/01/04 12:26:24;;;;;;;3.50;0.73;;;;;;;;;;4993962;28;20649;-59
2024/01/04 12:28:52;;;;;;;3.22;1.00;;;;;;;;;;4999053;28;20038;-59
2024/01/04 12:31:21;;;;;;;3.88;0.85;;;;;;;;;;4997940;28;20037;-57
2024/01/04 12:33:51;;;;;;;1.77;1.00;;;;;;;;;;4998105;28;20065;-59
2024/01/04 12:36:23;;;;;;;4.38;0.98;;;;;;;;;;4998608;28;20053;-60
2024/01/04 12:39:06;;;;;;;3.33;0.77;;;;;;;;;;5000749;28;20046;-59
2024/01/04 12:41:33;;;;;;;4.90;1.60;;;;;;;;;;5005643;28;20030;-58
2024/01/04 12:44:00;;;;;;;4.82;1.38;;;;;;;;;;5010298;28;20437;-60
2024/01/04 12:46:27;;;;;;;3.15;0.55;;;;;;;;;;5004774;28;20042;-59
2024/01/04 12:49:04;;;;;;;3.05;0.90;;;;;;;;;;5012315;28;20039;-59
2024/01/04 12:51:30;;;;;;;3.42;0.70;;;;;;;;;;5003205;28;20034;-59
2024/01/04 12:53:57;;;;;;;4.38;1.02;;;;;;;;;;5002627;28;20406;-59
2024/01/04 12:56:23;;;;;;;4.22;1.05;;;;;;;;;;5000790;28;20038;-58
2024/01/04 12:58:50;;;;;;;4.95;1.65;;;;;;;;;;5000170;28;20050;-58
2024/01/04 13:01:16;;;;;;;4.97;1.30;;;;;;;;;;5001184;28;20037;-59
2024/01/04 13:03:42;;;;;;;4.18;1.30;;;;;;;;;;5005249;28;20049;-59
2024/01/04 13:06:08;;;;;;;6.07;1.30;;;;;;;;;;5003802;28;20030;-59
2024/01/04 13:08:35;;;;;;;6.15;1.50;;;;;;;;;;5007074;28;20050;-60
2024/01/04 13:11:02;;;;;;;6.22;1.67;;;;;;;;;;5002860;28;20038;-60
2024/01/04 13:13:28;;;;;;;4.90;1.23;;;;;;;;;;5000640;28;20043;-60
2024/01/04 13:15:54;;;;;;;4.82;1.70;;;;;;;;;;5004538;28;20529;-59
2024/01/04 13:18:20;;;;;;;4.38;2.70;;;;;;;;;;5007523;28;20045;-60
2024/01/04 13:20:46;;;;;;;4.28;2.10;;;;;;;;;;5002654;28;20031;-60
2024/01/04 13:23:13;;;;;;;7.28;3.08;;;;;;;;;;5004588;28;20509;-59
2024/01/04 13:25:40;;;;;;;5.85;2.22;;;;;;;;;;5001163;28;20064;-60
2024/01/04 13:28:06;;;;;;;2.90;1.33;;;;;;;;;;5003415;28;20045;-61
2024/01/04 13:30:32;;;;;;;4.25;1.42;;;;;;;;;;4998853;28;20031;-58
2024/01/04 13:32:58;;;;;;;4.13;1.00;;;;;;;;;;5001369;28;20049;-58
2024/01/04 13:35:24;;;;;;;4.57;1.15;;;;;;;;;;5008454;28;20508;-58
2024/01/04 13:37:50;;;;;;;5.72;1.80;;;;;;;;;;5003156;28;20050;-58
2024/01/04 13:40:17;;;;;;;7.53;1.88;;;;;;;;;;4999703;28;20520;-59
2024/01/04 13:42:45;;;;;;;3.53;0.95;;;;;;;;;;5001398;28;20079;-58
2024/01/04 13:45:11;;;;;;;5.13;1.23;;;;;;;;;;5005160;28;20054;-57
2024/01/04 13:47:38;;;;;;;7.32;1.60;;;;;;;;;;5000224;28;20053;-58
2024/01/04 13:50:05;;;;;;;8.02;2.40;;;;;;;;;;5001092;28;20053;-57
2024/01/04 13:52:31;;;;;;;6.38;1.95;;;;;;;;;;5001719;28;20036;-57
2024/01/04 13:54:57;;;;;;;4.32;1.55;;;;;;;;;;5002018;28;20055;-58
2024/01/04 13:57:23;;;;;;;4.82;1.75;;;;;;;;;;5001454;28;20037;-57
2024/01/04 13:59:49;;;;;;;5.72;2.00;;;;;;;;;;5002278;28;20053;-58
2024/01/04 14:02:16;;;;;;;4.38;1.73;;;;;;;;;;5001613;28;20038;-58
2024/01/04 14:04:42;;;;;;;6.13;1.40;;;;;;;;;;5006282;28;20517;-58
2024/01/04 14:07:09;;;;;;;5.13;1.60;;;;;;;;;;4997825;28;20045;-59
2024/01/04 14:09:35;;;;;;;6.03;2.50;;;;;;;;;;4998996;28;20531;-58
2024/01/04 14:12:03;;;;;;;7.65;2.38;;;;;;;;;;5002283;28;20065;-58
2024/01/04 14:14:29;;;;;;;7.93;2.10;;;;;;;;;;5005483;28;20048;-58
2024/01/04 14:16:55;;;;;;;6.68;2.15;;;;;;;;;;5004462;28;20045;-58
2024/01/04 14:19:21;;;;;;;6.10;2.45;;;;;;;;;;5001674;28;20033;-58
2024/01/04 14:21:47;;;;;;;4.90;1.40;;;;;;;;;;5005701;28;20441;-58
2024/01/04 14:24:13;;;;;;;6.10;2.22;;;;;;;;;;5000944;28;20030;-58
2024/01/04 14:26:39;;;;;;;6.30;2.40;;;;;;;;;;5002150;28;20420;-59
2024/01/04 14:29:05;;;;;;;3.03;1.63;;;;;;;;;;5002786;28;20034;-58
2024/01/04 14:31:31;;;;;;;4.55;1.42;;;;;;;;;;5006650;28;20041;-58
2024/01/04 14:33:57;;;;;;;2.42;1.00;;;;;;;;;;5002871;28;20041;-60
2024/01/04 14:36:23;;;;;;;5.45;1.10;;;;;;;;;;5002541;28;20042;-58
2024/01/04 14:38:50;;;;;;;6.18;1.10;;;;;;;;;;4999421;28;20057;-59
2024/01/04 14:41:16;;;;;;;3.13;1.30;;;;;;;;;;5005251;28;20030;-58